createdAt,value
2019-02-14T00:00:35.584Z,22.41
2019-02-14T00:02:28.540Z,22.46
2019-02-14T00:03:28.560Z,22.43
2019-02-14T00:05:21.508Z,22.44
2019-02-14T00:06:21.537Z,22.38
2019-02-14T00:08:14.485Z,22.40
2019-02-14T00:09:14.504Z,22.40
2019-02-14T00:11:07.479Z,22.37
2019-02-14T00:12:07.476Z,22.37
2019-02-14T00:14:00.928Z,22.40
2019-02-14T00:15:00.951Z,22.33
2019-02-14T00:16:53.900Z,22.41
2019-02-14T00:17:53.941Z,22.36
2019-02-14T00:19:46.863Z,22.36
2019-02-14T00:20:46.891Z,22.40
2019-02-14T00:22:40.350Z,22.40
2019-02-14T00:23:40.367Z,22.25
2019-02-14T00:25:33.806Z,22.36
2019-02-14T00:26:33.835Z,22.26
2019-02-14T00:28:27.283Z,22.33
2019-02-14T00:29:27.306Z,22.25
2019-02-14T00:31:20.250Z,22.22
2019-02-14T00:32:20.280Z,22.22
2019-02-14T00:34:13.228Z,22.37
2019-02-14T00:35:13.251Z,22.25
2019-02-14T00:37:06.206Z,22.31
2019-02-14T00:38:06.227Z,22.26
2019-02-14T00:39:59.170Z,22.25
2019-02-14T00:40:59.200Z,22.22
2019-02-14T00:42:52.145Z,22.23
2019-02-14T00:43:52.168Z,22.25
2019-02-14T00:45:45.608Z,22.26
2019-02-14T00:46:45.635Z,22.33
2019-02-14T00:48:39.085Z,22.30
2019-02-14T00:49:39.110Z,22.28
2019-02-14T00:51:32.050Z,22.31
2019-02-14T00:52:32.081Z,22.25
2019-02-14T00:54:25.043Z,22.25
2019-02-14T00:55:25.065Z,22.18
2019-02-14T00:57:18.039Z,22.33
2019-02-14T00:58:18.037Z,22.19
2019-02-14T01:00:11.472Z,22.18
2019-02-14T01:01:11.500Z,22.14
2019-02-14T01:03:04.952Z,22.23
2019-02-14T01:04:04.973Z,22.16
2019-02-14T01:05:57.918Z,22.19
2019-02-14T01:06:57.947Z,22.21
2019-02-14T01:08:50.904Z,22.14
2019-02-14T01:09:50.922Z,22.18
2019-02-14T01:11:43.863Z,22.08
2019-02-14T01:12:43.892Z,22.06
2019-02-14T01:14:36.853Z,22.16
2019-02-14T01:15:36.865Z,22.12
2019-02-14T01:17:29.804Z,22.23
2019-02-14T01:18:29.838Z,22.08
2019-02-14T01:20:23.276Z,22.01
2019-02-14T01:21:23.298Z,22.07
2019-02-14T01:23:16.250Z,22.04
2019-02-14T01:24:16.269Z,22.01
2019-02-14T01:26:09.213Z,21.92
2019-02-14T01:27:09.240Z,22.00
2019-02-14T01:29:02.684Z,22.00
2019-02-14T01:30:02.703Z,22.07
2019-02-14T01:31:55.641Z,21.94
2019-02-14T01:32:55.672Z,22.00
2019-02-14T01:34:49.118Z,21.97
2019-02-14T01:35:49.133Z,21.85
2019-02-14T01:37:42.078Z,21.88
2019-02-14T01:38:42.106Z,21.92
2019-02-14T01:40:35.059Z,21.89
2019-02-14T01:41:35.079Z,21.97
2019-02-14T01:43:28.523Z,22.00
2019-02-14T01:44:28.543Z,21.94
2019-02-14T01:46:21.976Z,22.01
2019-02-14T01:47:22.002Z,21.92
2019-02-14T01:49:14.958Z,21.97
2019-02-14T01:50:14.978Z,22.06
2019-02-14T01:52:07.921Z,21.99
2019-02-14T01:53:07.950Z,21.96
2019-02-14T01:55:01.405Z,21.94
2019-02-14T01:56:01.422Z,21.92
2019-02-14T01:57:54.362Z,21.91
2019-02-14T01:58:54.395Z,21.91
2019-02-14T02:00:47.342Z,21.92
2019-02-14T02:01:47.363Z,21.92
2019-02-14T02:03:40.809Z,21.85
2019-02-14T02:04:40.828Z,21.88
2019-02-14T02:06:34.264Z,21.91
2019-02-14T02:07:34.290Z,21.83
2019-02-14T02:09:27.238Z,21.89
2019-02-14T02:10:27.258Z,21.92
2019-02-14T02:12:20.705Z,21.85
2019-02-14T02:13:20.732Z,21.83
2019-02-14T02:15:14.182Z,21.78
2019-02-14T02:16:14.198Z,21.74
2019-02-14T02:18:07.141Z,21.84
2019-02-14T02:19:07.170Z,21.75
2019-02-14T02:21:00.121Z,21.80
2019-02-14T02:22:00.141Z,21.74
2019-02-14T02:23:53.089Z,21.83
2019-02-14T02:24:53.110Z,21.74
2019-02-14T02:26:46.056Z,21.84
2019-02-14T02:27:46.085Z,21.83
2019-02-14T02:29:39.536Z,21.72
2019-02-14T02:30:39.558Z,21.70
2019-02-14T02:32:32.503Z,21.75
2019-02-14T02:33:32.528Z,21.70
2019-02-14T02:35:25.985Z,21.70
2019-02-14T02:36:26.001Z,21.69
2019-02-14T02:38:18.943Z,21.77
2019-02-14T02:39:18.969Z,21.74
2019-02-14T02:41:12.414Z,21.75
2019-02-14T02:42:12.434Z,21.77
2019-02-14T02:44:05.888Z,21.72
2019-02-14T02:45:05.908Z,21.69
2019-02-14T02:46:58.850Z,21.72
2019-02-14T02:47:58.875Z,21.75
2019-02-14T02:49:51.848Z,21.74
2019-02-14T02:50:51.849Z,21.78
2019-02-14T02:52:44.798Z,21.70
2019-02-14T02:53:44.824Z,21.77
2019-02-14T02:55:37.796Z,21.74
2019-02-14T02:56:37.798Z,21.68
2019-02-14T02:58:31.233Z,21.72
2019-02-14T02:59:31.271Z,21.62
2019-02-14T03:01:24.213Z,21.63
2019-02-14T03:02:24.235Z,21.68
2019-02-14T03:04:17.187Z,21.68
2019-02-14T03:05:17.212Z,21.72
2019-02-14T03:07:10.649Z,21.69
2019-02-14T03:08:10.679Z,21.69
2019-02-14T03:10:03.626Z,21.69
2019-02-14T03:11:03.644Z,21.69
2019-02-14T03:12:57.078Z,21.74
2019-02-14T03:13:57.109Z,21.70
2019-02-14T03:15:50.060Z,21.70
2019-02-14T03:16:50.078Z,21.66
2019-02-14T03:18:43.022Z,21.69
2019-02-14T03:19:43.048Z,21.70
2019-02-14T03:21:36.491Z,21.69
2019-02-14T03:22:36.511Z,21.62
2019-02-14T03:24:29.477Z,21.66
2019-02-14T03:25:29.483Z,21.74
2019-02-14T03:27:22.422Z,21.78
2019-02-14T03:28:22.454Z,21.66
2019-02-14T03:30:15.897Z,21.70
2019-02-14T03:31:16.010Z,21.69
2019-02-14T03:33:08.862Z,21.75
2019-02-14T03:34:08.939Z,21.66
2019-02-14T03:36:01.885Z,21.62
2019-02-14T03:37:01.893Z,21.65
2019-02-14T03:38:55.347Z,21.66
2019-02-14T03:39:55.365Z,21.66
2019-02-14T03:41:48.324Z,21.69
2019-02-14T03:42:48.341Z,21.62
2019-02-14T03:44:41.278Z,21.65
2019-02-14T03:45:41.309Z,21.69
2019-02-14T03:47:34.266Z,21.72
2019-02-14T03:48:34.287Z,21.72
2019-02-14T03:50:27.235Z,21.58
2019-02-14T03:51:27.260Z,21.62
2019-02-14T03:53:20.203Z,21.62
2019-02-14T03:54:20.230Z,21.65
2019-02-14T03:56:13.683Z,21.63
2019-02-14T03:57:13.704Z,21.69
2019-02-14T03:59:06.647Z,21.59
2019-02-14T04:00:06.687Z,21.66
2019-02-14T04:01:59.666Z,21.63
2019-02-14T04:02:59.646Z,21.63
2019-02-14T04:04:52.594Z,21.66
2019-02-14T04:05:52.621Z,21.58
2019-02-14T04:07:46.061Z,21.62
2019-02-14T04:08:46.084Z,21.68
2019-02-14T04:10:39.033Z,21.60
2019-02-14T04:11:39.055Z,21.60
2019-02-14T04:13:32.008Z,21.63
2019-02-14T04:14:32.027Z,21.56
2019-02-14T04:16:24.974Z,21.66
2019-02-14T04:17:24.991Z,21.59
2019-02-14T04:19:17.939Z,21.62
2019-02-14T04:20:17.974Z,21.54
2019-02-14T04:22:10.918Z,21.54
2019-02-14T04:23:10.940Z,21.63
2019-02-14T04:25:04.374Z,21.63
2019-02-14T04:26:04.402Z,21.54
2019-02-14T04:27:57.355Z,21.60
2019-02-14T04:28:57.386Z,21.62
2019-02-14T04:30:51.815Z,21.59
2019-02-14T04:31:51.837Z,21.60
2019-02-14T04:33:44.793Z,21.59
2019-02-14T04:34:44.812Z,21.62
2019-02-14T04:36:37.763Z,21.63
2019-02-14T04:37:37.784Z,21.65
2019-02-14T04:39:30.723Z,21.68
2019-02-14T04:40:33.630Z,21.74
2019-02-14T04:42:23.706Z,21.75
2019-02-14T04:43:23.726Z,21.75
2019-02-14T04:45:16.668Z,21.78
2019-02-14T04:46:16.697Z,21.75
2019-02-14T04:48:10.137Z,21.80
2019-02-14T04:49:10.160Z,21.91
2019-02-14T04:51:03.105Z,21.89
2019-02-14T04:52:03.126Z,21.78
2019-02-14T04:53:56.066Z,21.83
2019-02-14T04:54:56.096Z,21.92
2019-02-14T04:56:49.051Z,21.75
2019-02-14T04:57:49.069Z,21.88
2019-02-14T04:59:42.015Z,21.96
2019-02-14T05:00:42.932Z,21.89
2019-02-14T05:02:35.009Z,21.91
2019-02-14T05:03:35.014Z,21.92
2019-02-14T05:05:28.462Z,21.85
2019-02-14T05:06:28.489Z,21.92
2019-02-14T05:08:21.443Z,21.94
2019-02-14T05:09:21.460Z,21.97
2019-02-14T05:11:14.417Z,21.94
2019-02-14T05:12:14.439Z,21.91
2019-02-14T05:14:07.377Z,21.96
2019-02-14T05:15:07.407Z,21.96
2019-02-14T05:17:00.351Z,21.94
2019-02-14T05:18:00.377Z,21.96
2019-02-14T05:19:53.321Z,21.94
2019-02-14T05:20:53.344Z,21.99
2019-02-14T05:22:46.299Z,21.92
2019-02-14T05:23:46.317Z,21.81
2019-02-14T05:25:39.263Z,21.89
2019-02-14T05:26:39.286Z,21.83
2019-02-14T05:28:32.238Z,21.88
2019-02-14T05:29:32.261Z,21.88
2019-02-14T05:31:25.203Z,21.78
2019-02-14T05:32:25.232Z,21.83
2019-02-14T05:34:18.186Z,21.88
2019-02-14T05:35:18.203Z,21.78
2019-02-14T05:37:11.156Z,21.85
2019-02-14T05:38:11.174Z,21.81
2019-02-14T05:40:04.116Z,21.75
2019-02-14T05:41:04.146Z,21.75
2019-02-14T05:42:57.101Z,21.70
2019-02-14T05:43:57.123Z,21.80
2019-02-14T05:45:50.076Z,21.89
2019-02-14T05:46:50.099Z,21.88
2019-02-14T05:48:43.054Z,21.84
2019-02-14T05:49:43.073Z,21.92
2019-02-14T05:51:36.025Z,21.83
2019-02-14T05:52:36.049Z,21.91
2019-02-14T05:54:29.001Z,21.80
2019-02-14T05:55:29.021Z,21.83
2019-02-14T05:57:22.463Z,21.78
2019-02-14T05:58:22.484Z,21.80
2019-02-14T06:00:15.427Z,21.81
2019-02-14T06:01:15.458Z,21.85
2019-02-14T06:03:08.414Z,21.92
2019-02-14T06:04:08.428Z,21.85
2019-02-14T06:06:01.374Z,21.88
2019-02-14T06:07:01.484Z,21.88
2019-02-14T06:08:54.351Z,21.92
2019-02-14T06:09:54.371Z,21.89
2019-02-14T06:11:47.807Z,21.92
2019-02-14T06:12:47.836Z,21.83
2019-02-14T06:14:41.276Z,21.74
2019-02-14T06:15:41.295Z,21.88
2019-02-14T06:17:34.746Z,21.92
2019-02-14T06:18:34.760Z,21.89
2019-02-14T06:20:28.213Z,21.92
2019-02-14T06:21:28.236Z,21.77
2019-02-14T06:23:21.190Z,21.85
2019-02-14T06:24:21.210Z,21.85
2019-02-14T06:26:14.155Z,21.84
2019-02-14T06:27:14.189Z,21.89
2019-02-14T06:29:07.147Z,21.91
2019-02-14T06:30:07.167Z,21.92
2019-02-14T06:32:00.114Z,21.89
2019-02-14T06:33:00.137Z,21.88
2019-02-14T06:34:53.089Z,21.97
2019-02-14T06:35:53.110Z,22.00
2019-02-14T06:37:46.071Z,22.08
2019-02-14T06:38:46.080Z,22.08
2019-02-14T06:40:39.532Z,22.15
2019-02-14T06:41:39.548Z,22.18
2019-02-14T06:43:33.020Z,22.19
2019-02-14T06:44:33.033Z,22.18
2019-02-14T06:46:26.467Z,22.23
2019-02-14T06:47:26.496Z,22.18
2019-02-14T06:49:19.951Z,22.28
2019-02-14T06:50:19.968Z,22.31
2019-02-14T06:52:13.403Z,22.22
2019-02-14T06:53:13.431Z,22.38
2019-02-14T06:55:06.884Z,22.49
2019-02-14T06:56:06.904Z,22.44
2019-02-14T06:58:00.373Z,22.51
2019-02-14T06:59:00.383Z,22.47
2019-02-14T07:00:53.849Z,22.63
2019-02-14T07:01:53.867Z,22.65
2019-02-14T07:03:46.816Z,22.52
2019-02-14T07:04:46.835Z,22.55
2019-02-14T07:06:39.782Z,22.51
2019-02-14T07:07:39.810Z,22.49
2019-02-14T07:09:32.760Z,22.56
2019-02-14T07:10:32.780Z,22.65
2019-02-14T07:12:25.726Z,22.51
2019-02-14T07:13:25.757Z,22.55
2019-02-14T07:15:19.208Z,22.62
2019-02-14T07:16:19.229Z,22.49
2019-02-14T07:18:12.177Z,22.70
2019-02-14T07:19:12.201Z,22.55
2019-02-14T07:21:05.154Z,22.71
2019-02-14T07:22:05.180Z,22.76
2019-02-14T07:23:58.166Z,22.63
2019-02-14T07:24:58.149Z,22.68
2019-02-14T07:26:51.091Z,22.74
2019-02-14T07:27:51.121Z,22.62
2019-02-14T07:29:44.076Z,22.71
2019-02-14T07:30:44.097Z,22.62
2019-02-14T07:32:37.041Z,22.73
2019-02-14T07:33:37.072Z,22.73
2019-02-14T07:35:30.024Z,22.71
2019-02-14T07:36:30.046Z,22.67
2019-02-14T07:38:22.991Z,22.80
2019-02-14T07:39:23.025Z,22.78
2019-02-14T07:41:16.474Z,22.74
2019-02-14T07:42:16.491Z,22.83
2019-02-14T07:44:09.445Z,22.76
2019-02-14T07:45:09.458Z,22.74
2019-02-14T07:47:02.910Z,22.83
2019-02-14T07:48:02.938Z,22.78
2019-02-14T07:49:56.390Z,22.77
2019-02-14T07:50:56.412Z,22.81
2019-02-14T07:52:49.366Z,22.71
2019-02-14T07:53:49.387Z,22.73
2019-02-14T07:55:42.350Z,22.73
2019-02-14T07:56:42.360Z,22.74
2019-02-14T07:58:35.307Z,22.80
2019-02-14T07:59:35.337Z,22.77
2019-02-14T08:01:28.793Z,22.78
2019-02-14T08:02:28.814Z,22.70
2019-02-14T08:04:21.762Z,22.74
2019-02-14T08:05:21.805Z,22.77
2019-02-14T08:07:15.245Z,22.71
2019-02-14T08:08:15.266Z,22.67
2019-02-14T08:10:08.220Z,22.78
2019-02-14T08:11:08.239Z,22.73
2019-02-14T08:13:01.193Z,22.78
2019-02-14T08:14:01.211Z,22.74
2019-02-14T08:15:54.188Z,22.73
2019-02-14T08:16:54.186Z,22.84
2019-02-14T08:18:47.135Z,22.83
2019-02-14T08:19:47.169Z,22.78
2019-02-14T08:21:40.631Z,22.84
2019-02-14T08:22:40.648Z,22.84
2019-02-14T08:24:33.593Z,22.83
2019-02-14T08:25:33.620Z,22.86
2019-02-14T08:27:27.065Z,22.80
2019-02-14T08:28:27.087Z,22.83
2019-02-14T08:30:20.049Z,22.86
2019-02-14T08:31:20.060Z,23.02
2019-02-14T08:33:13.006Z,22.99
2019-02-14T08:34:13.050Z,22.98
2019-02-14T08:36:06.478Z,22.91
2019-02-14T08:37:06.498Z,22.92
2019-02-14T08:38:59.443Z,23.02
2019-02-14T08:39:59.472Z,23.04
2019-02-14T08:41:52.928Z,23.01
2019-02-14T08:42:52.950Z,22.99
2019-02-14T08:44:45.892Z,23.01
2019-02-14T08:45:45.923Z,22.98
2019-02-14T08:47:39.378Z,22.96
2019-02-14T08:48:39.388Z,22.95
2019-02-14T08:50:32.850Z,22.93
2019-02-14T08:51:32.869Z,22.83
2019-02-14T08:53:25.822Z,23.02
2019-02-14T08:54:25.841Z,23.06
2019-02-14T08:56:18.795Z,22.98
2019-02-14T08:57:18.819Z,23.01
2019-02-14T08:59:12.257Z,23.02
2019-02-14T09:00:12.287Z,23.08
2019-02-14T09:02:05.243Z,23.10
2019-02-14T09:03:05.266Z,23.14
2019-02-14T09:04:58.204Z,23.14
2019-02-14T09:05:58.232Z,23.11
2019-02-14T09:07:54.800Z,23.11
2019-02-14T09:08:51.209Z,23.13
2019-02-14T09:10:44.655Z,23.10
2019-02-14T09:11:44.682Z,23.07
2019-02-14T09:13:38.132Z,22.99
2019-02-14T09:14:38.153Z,23.11
2019-02-14T09:16:31.137Z,23.07
2019-02-14T09:17:31.128Z,23.04
2019-02-14T09:19:24.087Z,23.11
2019-02-14T09:20:24.102Z,23.07
2019-02-14T09:22:17.055Z,23.10
2019-02-14T09:23:17.074Z,23.11
2019-02-14T09:25:10.016Z,23.07
2019-02-14T09:26:10.043Z,23.17
2019-02-14T09:28:03.506Z,23.13
2019-02-14T09:29:03.508Z,23.16
2019-02-14T09:30:56.947Z,23.33
2019-02-14T09:31:56.975Z,23.20
2019-02-14T09:33:49.932Z,23.14
2019-02-14T09:34:49.953Z,23.14
2019-02-14T09:36:42.931Z,23.21
2019-02-14T09:37:42.928Z,23.25
2019-02-14T09:39:40.909Z,23.17
2019-02-14T09:40:36.392Z,23.18
2019-02-14T09:42:30.857Z,23.26
2019-02-14T09:43:30.856Z,23.20
2019-02-14T09:45:23.810Z,23.28
2019-02-14T09:46:23.835Z,23.33
2019-02-14T09:48:16.783Z,23.28
2019-02-14T09:49:16.826Z,23.28
2019-02-14T09:51:09.750Z,23.18
2019-02-14T09:52:09.778Z,23.21
2019-02-14T09:54:02.731Z,23.34
2019-02-14T09:55:02.757Z,23.28
2019-02-14T09:56:55.714Z,23.34
2019-02-14T09:57:55.729Z,23.39
2019-02-14T09:59:49.176Z,23.39
2019-02-14T10:00:49.203Z,23.36
2019-02-14T10:02:42.170Z,23.37
2019-02-14T10:03:42.172Z,23.28
2019-02-14T10:05:35.126Z,23.47
2019-02-14T10:06:36.958Z,23.39
2019-02-14T10:08:28.104Z,23.47
2019-02-14T10:09:28.128Z,23.45
2019-02-14T10:11:21.577Z,23.52
2019-02-14T10:12:21.603Z,23.52
2019-02-14T10:14:15.050Z,23.42
2019-02-14T10:15:15.069Z,23.34
2019-02-14T10:17:08.537Z,23.36
2019-02-14T10:18:08.549Z,23.44
2019-02-14T10:20:01.490Z,23.40
2019-02-14T10:21:01.519Z,23.44
2019-02-14T10:22:54.986Z,23.37
2019-02-14T10:23:55.006Z,23.34
2019-02-14T10:25:47.959Z,23.36
2019-02-14T10:26:47.980Z,23.39
2019-02-14T10:28:40.941Z,23.33
2019-02-14T10:29:40.962Z,23.33
2019-02-14T10:31:34.406Z,23.39
2019-02-14T10:32:34.434Z,23.40
2019-02-14T10:34:27.390Z,23.37
2019-02-14T10:35:27.410Z,23.40
2019-02-14T10:37:20.376Z,23.32
2019-02-14T10:38:22.595Z,23.32
2019-02-14T10:40:13.337Z,23.42
2019-02-14T10:41:13.359Z,23.36
2019-02-14T10:43:06.320Z,23.44
2019-02-14T10:44:06.341Z,23.40
2019-02-14T10:45:59.286Z,23.33
2019-02-14T10:46:59.313Z,23.34
2019-02-14T10:48:52.775Z,23.49
2019-02-14T10:49:52.791Z,23.54
2019-02-14T10:51:45.745Z,23.40
2019-02-14T10:52:45.770Z,23.40
2019-02-14T10:54:38.729Z,23.36
2019-02-14T10:55:38.747Z,23.51
2019-02-14T10:57:31.692Z,23.48
2019-02-14T10:58:31.724Z,23.48
2019-02-14T11:00:25.172Z,23.48
2019-02-14T11:01:25.193Z,23.49
2019-02-14T11:03:18.150Z,23.51
2019-02-14T11:04:18.171Z,23.54
2019-02-14T11:06:11.123Z,23.54
2019-02-14T11:07:11.148Z,23.51
2019-02-14T11:09:04.101Z,23.62
2019-02-14T11:10:04.122Z,23.62
2019-02-14T11:11:57.570Z,23.55
2019-02-14T11:12:57.597Z,23.59
2019-02-14T11:14:51.056Z,23.59
2019-02-14T11:15:51.072Z,23.55
2019-02-14T11:17:44.522Z,23.64
2019-02-14T11:18:44.750Z,23.55
2019-02-14T11:20:37.500Z,23.62
2019-02-14T11:21:37.523Z,23.56
2019-02-14T11:23:30.967Z,23.55
2019-02-14T11:24:30.988Z,23.70
2019-02-14T11:26:24.428Z,23.67
2019-02-14T11:27:24.455Z,23.66
2019-02-14T11:29:17.412Z,23.58
2019-02-14T11:30:17.431Z,23.62
2019-02-14T11:32:10.884Z,23.69
2019-02-14T11:33:10.913Z,23.70
2019-02-14T11:35:03.868Z,23.67
2019-02-14T11:36:03.891Z,23.70
2019-02-14T11:37:56.838Z,23.70
2019-02-14T11:38:56.862Z,23.69
2019-02-14T11:40:49.817Z,23.71
2019-02-14T11:41:49.840Z,23.74
2019-02-14T11:43:43.291Z,23.76
2019-02-14T11:44:43.312Z,23.76
2019-02-14T11:46:36.259Z,23.77
2019-02-14T11:47:36.294Z,23.76
2019-02-14T11:49:29.776Z,23.76
2019-02-14T11:50:29.764Z,23.73
2019-02-14T11:52:23.209Z,23.73
2019-02-14T11:53:23.231Z,23.73
2019-02-14T11:55:16.192Z,23.79
2019-02-14T11:56:16.212Z,23.74
2019-02-14T11:58:09.658Z,23.86
2019-02-14T11:59:09.692Z,23.81
2019-02-14T12:01:03.143Z,23.76
2019-02-14T12:02:03.167Z,23.74
2019-02-14T12:03:56.126Z,23.85
2019-02-14T12:04:56.147Z,23.85
2019-02-14T12:06:49.618Z,23.92
2019-02-14T12:07:49.611Z,23.86
2019-02-14T12:09:43.056Z,23.99
2019-02-14T12:10:43.085Z,23.94
2019-02-14T12:12:36.531Z,23.92
2019-02-14T12:13:36.560Z,23.95
2019-02-14T12:15:30.027Z,24.07
2019-02-14T12:16:30.037Z,24.09
2019-02-14T12:18:24.135Z,24.21
2019-02-14T12:19:23.506Z,24.26
2019-02-14T12:21:17.006Z,24.38
2019-02-14T12:22:16.976Z,24.34
2019-02-14T12:24:10.440Z,24.40
2019-02-14T12:25:10.460Z,24.48
2019-02-14T12:27:03.901Z,24.53
2019-02-14T12:28:03.931Z,24.59
2019-02-14T12:29:57.390Z,24.65
2019-02-14T12:30:57.404Z,24.62
2019-02-14T12:32:50.851Z,24.63
2019-02-14T12:33:50.883Z,24.69
2019-02-14T12:35:44.360Z,24.92
2019-02-14T12:36:44.387Z,24.89
2019-02-14T12:38:37.807Z,25.03
2019-02-14T12:39:37.837Z,25.03
2019-02-14T12:41:31.289Z,25.03
2019-02-14T12:42:31.310Z,25.19
2019-02-14T12:44:24.769Z,25.26
2019-02-14T12:45:26.014Z,25.25
2019-02-14T12:47:17.735Z,25.26
2019-02-14T12:48:17.772Z,25.34
2019-02-14T12:50:11.222Z,25.31
2019-02-14T12:51:11.237Z,25.33
2019-02-14T12:53:04.712Z,25.43
2019-02-14T12:54:04.730Z,25.54
2019-02-14T12:55:58.191Z,25.81
2019-02-14T12:56:58.207Z,25.81
2019-02-14T12:58:51.674Z,25.83
2019-02-14T12:59:51.674Z,25.83
2019-02-14T13:01:44.642Z,26.07
2019-02-14T13:02:44.657Z,26.22
2019-02-14T13:04:38.097Z,26.19
2019-02-14T13:05:38.126Z,26.15
2019-02-14T13:07:31.577Z,26.13
2019-02-14T13:08:31.600Z,26.11
2019-02-14T13:10:25.045Z,26.24
2019-02-14T13:11:25.070Z,26.22
2019-02-14T13:13:18.524Z,26.24
2019-02-14T13:14:18.563Z,26.31
2019-02-14T13:16:12.017Z,26.24
2019-02-14T13:17:12.036Z,26.27
2019-02-14T13:19:05.481Z,26.26
2019-02-14T13:20:05.512Z,26.29
2019-02-14T13:21:58.991Z,26.16
2019-02-14T13:22:58.989Z,26.15
2019-02-14T13:24:52.437Z,26.16
2019-02-14T13:25:52.465Z,26.13
2019-02-14T13:27:45.926Z,26.06
2019-02-14T13:28:45.934Z,26.03
2019-02-14T13:30:39.403Z,25.95
2019-02-14T13:31:39.420Z,26.07
2019-02-14T13:33:33.869Z,26.01
2019-02-14T13:34:33.916Z,25.98
2019-02-14T13:36:27.358Z,25.96
2019-02-14T13:37:27.380Z,25.95
2019-02-14T13:39:29.378Z,25.91
2019-02-14T13:40:21.855Z,25.93
2019-02-14T13:42:15.319Z,25.95
2019-02-14T13:43:15.351Z,25.98
2019-02-14T13:45:08.804Z,25.98
2019-02-14T13:46:08.835Z,25.88
2019-02-14T13:48:02.291Z,25.98
2019-02-14T13:49:02.314Z,25.92
2019-02-14T13:50:55.787Z,26.03
2019-02-14T13:51:55.793Z,25.99
2019-02-14T13:53:49.251Z,26.11
2019-02-14T13:54:49.281Z,26.06
2019-02-14T13:56:42.738Z,26.08
2019-02-14T13:57:42.766Z,26.08
2019-02-14T13:59:36.236Z,26.10
2019-02-14T14:00:36.250Z,26.13
2019-02-14T14:02:29.709Z,26.13
2019-02-14T14:03:29.732Z,26.19
2019-02-14T14:05:23.229Z,26.13
2019-02-14T14:06:25.376Z,26.10
2019-02-14T14:08:16.680Z,26.07
2019-02-14T14:09:16.697Z,26.10
2019-02-14T14:11:10.185Z,26.04
2019-02-14T14:12:10.184Z,26.06
2019-02-14T14:14:03.639Z,26.07
2019-02-14T14:15:03.665Z,26.08
2019-02-14T14:16:58.133Z,26.10
2019-02-14T14:17:58.167Z,26.04
2019-02-14T14:19:51.610Z,26.06
2019-02-14T14:20:51.640Z,26.07
2019-02-14T14:22:45.108Z,26.07
2019-02-14T14:23:45.144Z,26.08
2019-02-14T14:25:38.602Z,26.08
2019-02-14T14:26:38.625Z,26.08
2019-02-14T14:28:33.090Z,26.07
2019-02-14T14:29:33.103Z,26.07
2019-02-14T14:31:26.564Z,26.06
2019-02-14T14:32:26.582Z,26.10
2019-02-14T14:34:20.042Z,26.06
2019-02-14T14:35:20.136Z,26.06
2019-02-14T14:37:13.542Z,26.07
2019-02-14T14:38:13.565Z,26.03
2019-02-14T14:40:07.021Z,26.08
2019-02-14T14:41:07.049Z,26.08
2019-02-14T14:43:00.505Z,26.03
2019-02-14T14:44:00.525Z,26.03
2019-02-14T14:45:53.995Z,26.03
2019-02-14T14:46:54.933Z,26.01
2019-02-14T14:48:47.492Z,26.03
2019-02-14T14:49:47.512Z,25.95
2019-02-14T14:51:40.959Z,25.92
2019-02-14T14:52:40.980Z,26.06
2019-02-14T14:54:34.468Z,25.98
2019-02-14T14:55:34.463Z,25.86
2019-02-14T14:57:27.421Z,25.73
2019-02-14T14:58:27.441Z,25.61
2019-02-14T15:00:20.881Z,25.48
2019-02-14T15:01:20.916Z,25.39
2019-02-14T15:03:14.367Z,25.25
2019-02-14T15:04:14.397Z,25.21
2019-02-14T15:06:07.346Z,25.18
2019-02-14T15:07:07.373Z,25.16
2019-02-14T15:09:00.831Z,25.04
2019-02-14T15:10:00.848Z,25.01
2019-02-14T15:11:54.377Z,25.19
2019-02-14T15:12:54.349Z,25.24
2019-02-14T15:14:47.812Z,25.33
2019-02-14T15:15:47.846Z,25.31
2019-02-14T15:17:41.293Z,25.44
2019-02-14T15:18:41.317Z,25.46
2019-02-14T15:20:35.777Z,25.41
2019-02-14T15:21:35.791Z,25.31
2019-02-14T15:23:28.749Z,25.30
2019-02-14T15:24:28.770Z,25.30
2019-02-14T15:26:22.228Z,25.33
2019-02-14T15:27:22.256Z,25.26
2019-02-14T15:29:15.751Z,25.24
2019-02-14T15:30:15.745Z,25.21
2019-02-14T15:32:09.205Z,25.22
2019-02-14T15:33:09.225Z,25.19
2019-02-14T15:35:02.671Z,25.14
2019-02-14T15:36:02.698Z,25.16
2019-02-14T15:37:56.158Z,25.07
2019-02-14T15:38:56.179Z,25.03
2019-02-14T15:40:49.128Z,25.11
2019-02-14T15:41:49.161Z,25.04
2019-02-14T15:43:42.118Z,25.12
2019-02-14T15:44:42.138Z,25.04
2019-02-14T15:46:35.086Z,24.94
2019-02-14T15:47:35.116Z,24.94
2019-02-14T15:49:28.073Z,24.99
2019-02-14T15:50:29.821Z,24.97
2019-02-14T15:52:21.540Z,24.96
2019-02-14T15:53:21.666Z,24.97
2019-02-14T15:55:14.521Z,24.88
2019-02-14T15:56:14.538Z,24.94
2019-02-14T15:58:09.286Z,24.85
2019-02-14T15:59:08.011Z,24.84
2019-02-14T16:01:01.477Z,24.85
2019-02-14T16:02:01.477Z,24.89
2019-02-14T16:03:54.942Z,24.89
2019-02-14T16:04:54.963Z,24.78
2019-02-14T16:06:50.035Z,24.78
2019-02-14T16:07:48.431Z,24.84
2019-02-14T16:09:41.892Z,24.84
2019-02-14T16:10:41.908Z,24.89
2019-02-14T16:12:35.353Z,24.88
2019-02-14T16:13:35.382Z,24.89
2019-02-14T16:15:30.558Z,24.86
2019-02-14T16:16:28.860Z,24.86
2019-02-14T16:18:23.274Z,24.88
2019-02-14T16:19:21.836Z,24.81
2019-02-14T16:21:14.787Z,24.81
2019-02-14T16:22:15.694Z,24.77
2019-02-14T16:24:08.283Z,24.81
2019-02-14T16:25:08.291Z,24.78
2019-02-14T16:27:03.302Z,24.79
2019-02-14T16:28:01.763Z,24.79
2019-02-14T16:29:54.719Z,24.74
2019-02-14T16:30:56.749Z,24.77
2019-02-14T16:32:48.183Z,24.77
2019-02-14T16:33:48.212Z,24.69
2019-02-14T16:35:41.174Z,24.79
2019-02-14T16:36:41.195Z,24.75
2019-02-14T16:38:35.644Z,24.82
2019-02-14T16:39:34.171Z,24.79
2019-02-14T16:41:27.621Z,24.79
2019-02-14T16:42:27.652Z,24.82
2019-02-14T16:44:21.115Z,24.78
2019-02-14T16:45:21.132Z,24.78
2019-02-14T16:47:14.086Z,24.78
2019-02-14T16:48:14.126Z,24.77
2019-02-14T16:50:07.094Z,24.61
2019-02-14T16:51:07.101Z,24.75
2019-02-14T16:53:00.055Z,24.78
2019-02-14T16:54:00.079Z,24.61
2019-02-14T16:56:01.692Z,24.59
2019-02-14T16:56:53.057Z,24.59
2019-02-14T16:58:46.020Z,24.65
2019-02-14T16:59:46.038Z,24.59
2019-02-14T17:01:38.989Z,24.59
2019-02-14T17:02:39.047Z,24.59
2019-02-14T17:04:31.984Z,24.62
2019-02-14T17:05:32.002Z,24.48
2019-02-14T17:07:24.948Z,24.63
2019-02-14T17:08:24.976Z,24.71
2019-02-14T17:10:17.934Z,24.55
2019-02-14T17:11:17.958Z,24.59
2019-02-14T17:13:10.911Z,24.61
2019-02-14T17:14:10.932Z,24.77
2019-02-14T17:16:03.886Z,24.78
2019-02-14T17:17:03.909Z,24.59
2019-02-14T17:18:56.865Z,24.62
2019-02-14T17:19:56.889Z,24.61
2019-02-14T17:21:49.836Z,24.50
2019-02-14T17:22:49.864Z,24.58
2019-02-14T17:24:43.323Z,24.50
2019-02-14T17:25:43.354Z,24.55
2019-02-14T17:27:36.294Z,24.62
2019-02-14T17:28:36.328Z,24.48
2019-02-14T17:30:29.285Z,24.53
2019-02-14T17:31:29.308Z,24.46
2019-02-14T17:33:22.255Z,24.59
2019-02-14T17:34:22.280Z,24.53
2019-02-14T17:36:15.241Z,24.58
2019-02-14T17:37:15.256Z,24.51
2019-02-14T17:39:08.212Z,24.44
2019-02-14T17:40:08.234Z,24.37
2019-02-14T17:42:01.187Z,24.41
2019-02-14T17:43:01.216Z,24.36
2019-02-14T17:44:54.170Z,24.22
2019-02-14T17:45:54.192Z,24.25
2019-02-14T17:47:47.142Z,24.31
2019-02-14T17:48:47.173Z,24.24
2019-02-14T17:50:40.584Z,24.25
2019-02-14T17:51:40.149Z,24.11
2019-02-14T17:53:33.098Z,24.13
2019-02-14T17:54:33.129Z,24.07
2019-02-14T17:56:26.084Z,24.01
2019-02-14T17:57:26.103Z,24.10
2019-02-14T17:59:19.059Z,24.06
2019-02-14T18:00:19.080Z,24.04
2019-02-14T18:02:12.027Z,24.00
2019-02-14T18:03:12.058Z,24.01
2019-02-14T18:05:05.015Z,24.00
2019-02-14T18:06:05.037Z,23.95
2019-02-14T18:07:58.356Z,23.99
2019-02-14T18:08:58.012Z,23.99
2019-02-14T18:10:55.019Z,23.84
2019-02-14T18:11:50.986Z,23.94
2019-02-14T18:13:43.931Z,23.85
2019-02-14T18:14:43.962Z,23.86
2019-02-14T18:16:36.920Z,23.94
2019-02-14T18:17:36.938Z,23.86
2019-02-14T18:19:29.895Z,23.86
2019-02-14T18:20:29.915Z,23.89
2019-02-14T18:22:22.860Z,23.89
2019-02-14T18:23:22.887Z,23.92
2019-02-14T18:25:15.874Z,23.92
2019-02-14T18:26:15.893Z,23.85
2019-02-14T18:28:08.841Z,23.92
2019-02-14T18:29:08.873Z,23.86
2019-02-14T18:31:01.830Z,23.92
2019-02-14T18:32:01.855Z,23.84
2019-02-14T18:33:54.802Z,23.91
2019-02-14T18:34:54.831Z,23.85